Time;durP1;ratioP1;P1;durP2;ratioP2;P2;SDS_P1;SDS_P2;PMS_P1;PMS_P2;Temp;Humidity;BMP_temperature;BMP_pressure;BME280_temperature;BME280_humidity;BME280_pressure;Samples;Min_cycle;Max_cycle;Signal;HPM_P1;HPM_P2
2022/08/22 00:00:37;;;;;;;;;;;;;;;23.99;53.88;101225.59;5105053;28;20450;-34
2022/08/22 00:03:13;;;;;;;;;;;;;;;24.00;53.92;101221.66;5119245;27;20362;-34
2022/08/22 00:05:51;;;;;;;;;;;;;;;24.00;53.86;101221.66;5119414;28;19932;-35
2022/08/22 00:08:20;;;;;;;;;;;;;;;23.99;53.87;101225.59;5099236;28;19958;-34
2022/08/22 00:10:50;;;;;;;;;;;;;;;23.99;53.86;101219.19;5119387;28;19984;-35
2022/08/22 00:13:21;;;;;;;;;;;;;;;23.99;53.94;101216.41;5104420;28;19975;-34
2022/08/22 00:15:52;;;;;;;;;;;;;;;23.99;53.88;101219.19;5118426;27;20139;-34
2022/08/22 00:18:37;;;;;;;;;;;;;;;23.98;53.78;101212.81;5102442;28;20365;-35
2022/08/22 00:21:11;;;;;;;;;;;;;;;24.00;53.98;101215.28;5109448;28;20034;-35
2022/08/22 00:23:43;;;;;;;;;;;;;;;23.99;53.68;101199.72;5121537;27;20026;-34
2022/08/22 00:26:19;;;;;;;;;;;;;;;23.99;53.94;101206.13;5119968;27;20378;-34
2022/08/22 00:28:48;;;;;;;;;;;;;;;23.99;53.65;101205.28;5101251;28;20010;-35
2022/08/22 00:31:21;;;;;;;;;;;;;;;24.00;53.69;101204.16;5121531;28;20002;-34
2022/08/22 00:33:50;;;;;;;;;;;;;;;24.00;53.92;101212.50;5121732;28;19982;-36
2022/08/22 00:36:36;;;;;;;;;;;;;;;23.99;53.90;101216.41;5095585;28;20028;-34
2022/08/22 00:39:05;;;;;;;;;;;;;;;23.99;53.66;101216.41;5104698;28;19975;-34
2022/08/22 00:41:51;;;;;;;;;;;;;;;23.98;53.90;101223.94;5123558;28;20065;-34
2022/08/22 00:44:36;;;;;;;;;;;;;;;24.00;53.73;101218.06;5103727;28;19971;-35
2022/08/22 00:47:07;;;;;;;;;;;;;;;23.98;53.80;101218.38;5102431;27;20010;-34
2022/08/22 00:49:40;;;;;;;;;;;;;;;23.99;53.85;101219.19;5123609;28;20014;-35
2022/08/22 00:52:13;;;;;;;;;;;;;;;23.99;53.71;101213.63;5102950;28;19967;-34
2022/08/22 00:54:45;;;;;;;;;;;;;;;23.99;53.79;101214.47;5102333;28;20285;-34
2022/08/22 00:57:23;;;;;;;;;;;;;;;23.99;53.72;101216.41;5123992;27;20421;-36
2022/08/22 00:59:55;;;;;;;;;;;;;;;23.99;53.86;101214.47;5122084;27;19959;-35
2022/08/22 01:02:30;;;;;;;;;;;;;;;24.00;53.73;101206.94;5122887;27;20026;-35
2022/08/22 01:05:16;;;;;;;;;;;;;;;23.99;53.81;101217.25;5105630;28;20057;-34
2022/08/22 01:07:45;;;;;;;;;;;;;;;24.00;53.88;101215.28;5099953;28;20022;-35
2022/08/22 01:10:31;;;;;;;;;;;;;;;23.99;53.70;101202.50;5123406;28;19989;-34
2022/08/22 01:13:16;;;;;;;;;;;;;;;24.00;53.66;101204.97;5110230;27;19955;-34
2022/08/22 01:15:41;;;;;;;;;;;;;;;23.99;53.87;101214.47;5104483;28;20022;-35
2022/08/22 01:18:27;;;;;;;;;;;;;;;23.99;54.00;101208.91;5119842;28;20269;-34
2022/08/22 01:20:56;;;;;;;;;;;;;;;23.99;53.62;101208.06;5106794;28;20405;-35
2022/08/22 01:23:42;;;;;;;;;;;;;;;23.99;53.68;101199.72;5118372;28;20322;-34
2022/08/22 01:26:21;;;;;;;;;;;;;;;23.99;53.74;101199.72;5103650;28;20038;-34
2022/08/22 01:29:09;;;;;;;;;;;;;;;23.98;53.95;101201.69;5122391;28;19949;-34
2022/08/22 01:31:49;;;;;;;;;;;;;;;23.98;53.84;101198.91;5099943;28;19923;-35
2022/08/22 01:34:34;;;;;;;;;;;;;;;23.99;53.75;101214.47;5118903;27;19967;-34
2022/08/22 01:37:05;;;;;;;;;;;;;;;23.98;53.69;101201.69;5105439;27;20531;-34
2022/08/22 01:39:36;;;;;;;;;;;;;;;23.98;53.78;101212.81;5122418;28;20018;-34
2022/08/22 01:42:22;;;;;;;;;;;;;;;23.99;53.65;101197.78;5120481;28;19971;-34
2022/08/22 01:45:00;;;;;;;;;;;;;;;23.99;53.71;101199.72;5104562;28;19969;-34
2022/08/22 01:47:28;;;;;;;;;;;;;;;23.99;53.87;101200.56;5123107;27;20338;-34
2022/08/22 01:50:11;;;;;;;;;;;;;;;23.99;53.67;101195.00;5105082;28;20354;-34
2022/08/22 01:52:39;;;;;;;;;;;;;;;23.99;53.73;101191.38;5127009;28;19971;-35
2022/08/22 01:55:06;;;;;;;;;;;;;;;23.99;53.72;101194.16;5126058;28;20425;-35
2022/08/22 01:57:32;;;;;;;;;;;;;;;23.98;53.71;101198.09;5118871;27;20409;-36
2022/08/22 01:59:58;;;;;;;;;;;;;;;23.99;53.84;101199.72;5125308;28;19928;-34
2022/08/22 02:02:35;;;;;;;;;;;;;;;24.00;53.69;101193.03;5127842;28;19980;-35
2022/08/22 02:05:05;;;;;;;;;;;;;;;23.98;53.63;101193.34;5129532;27;20319;-34
2022/08/22 02:07:50;;;;;;;;;;;;;;;23.98;53.69;101193.34;5107054;28;19951;-34
2022/08/22 02:10:36;;;;;;;;;;;;;;;23.98;53.94;101189.75;5116231;28;20010;-34
2022/08/22 02:13:07;;;;;;;;;;;;;;;23.98;53.80;101184.19;5110522;27;20019;-35
2022/08/22 02:15:36;;;;;;;;;;;;;;;23.98;53.75;101192.53;5125195;28;20413;-36
2022/08/22 02:18:09;;;;;;;;;;;;;;;23.99;53.63;101191.38;5123320;27;20411;-34
2022/08/22 02:20:54;;;;;;;;;;;;;;;23.98;53.67;101189.75;5131798;27;20347;-34
2022/08/22 02:23:24;;;;;;;;;;;;;;;23.99;53.69;101185.81;5104976;28;20094;-34
2022/08/22 02:28:57;;;;;;;;;;;;;;;23.98;53.80;101187.78;5183033;27;20014;-35
2022/08/22 02:31:26;;;;;;;;;;;;;;;23.98;53.82;101187.78;5157815;27;19975;-35
2022/08/22 02:33:55;;;;;;;;;;;;;;;23.98;53.77;101193.34;5180538;27;20021;-34
2022/08/22 02:36:25;;;;;;;;;;;;;;;23.98;53.64;101190.56;5156378;27;20009;-35
2022/08/22 02:38:55;;;;;;;;;;;;;;;23.99;53.72;101191.38;5154639;27;20009;-34
2022/08/22 02:41:23;;;;;;;;;;;;;;;23.98;53.77;101187.78;5176306;27;20009;-34
2022/08/22 02:43:51;;;;;;;;;;;;;;;23.98;53.90;101193.34;5178663;27;19971;-34
2022/08/22 02:46:22;;;;;;;;;;;;;;;23.98;53.81;101182.22;5158590;27;20013;-34
2022/08/22 02:48:52;;;;;;;;;;;;;;;23.97;53.94;101188.91;5157027;27;20054;-34
2022/08/22 02:51:20;;;;;;;;;;;;;;;23.97;53.80;101180.56;5179564;27;19985;-34
2022/08/22 02:56:30;;;;;;;;;;;;;;;23.98;53.61;101186.97;5175969;27;20013;-34
2022/08/22 02:58:58;;;;;;;;;;;;;;;23.98;53.94;101175.84;5151621;27;20046;-34
2022/08/22 03:01:29;;;;;;;;;;;;;;;23.98;53.88;101178.63;5163397;27;19927;-34
2022/08/22 03:04:14;;;;;;;;;;;;;;;23.97;53.89;101175.00;5170812;27;20002;-34
2022/08/22 03:06:42;;;;;;;;;;;;;;;23.98;53.82;101171.09;5152386;27;20088;-34
2022/08/22 03:09:19;;;;;;;;;;;;;;;23.98;53.62;101173.06;5168266;27;19979;-34
2022/08/22 03:11:46;;;;;;;;;;;;;;;23.98;53.72;101173.06;5149497;27;19977;-36
2022/08/22 03:14:13;;;;;;;;;;;;;;;23.98;53.68;101171.09;5168421;27;19923;-34
2022/08/22 03:16:44;;;;;;;;;;;;;;;23.97;53.56;101163.88;5143520;27;20014;-34
2022/08/22 03:19:13;;;;;;;;;;;;;;;23.98;53.79;101161.94;5150441;27;20372;-35
2022/08/22 03:21:54;;;;;;;;;;;;;;;23.96;53.53;101162.25;5168531;27;19976;-34
2022/08/22 03:24:24;;;;;;;;;;;;;;;23.98;53.66;101161.94;5150706;27;20034;-34
2022/08/22 03:26:51;;;;;;;;;;;;;;;23.99;53.82;101160.78;5167351;27;19923;-34
2022/08/22 03:29:19;;;;;;;;;;;;;;;23.98;53.67;101167.50;5168681;27;20317;-34
2022/08/22 03:32:04;;;;;;;;;;;;;;;23.97;53.67;101161.09;5164286;27;20014;-34
2022/08/22 03:34:30;;;;;;;;;;;;;;;23.98;53.65;101159.13;5149797;27;20006;-34
2022/08/22 03:37:05;;;;;;;;;;;;;;;23.97;53.70;101152.75;5162429;27;20273;-34
2022/08/22 03:39:41;;;;;;;;;;;;;;;23.97;53.84;101151.94;5167991;27;19993;-34
2022/08/22 03:42:09;;;;;;;;;;;;;;;23.97;53.72;101143.59;5150320;27;19945;-34
2022/08/22 03:44:43;;;;;;;;;;;;;;;23.97;53.61;101147.19;5146255;27;20009;-34
2022/08/22 03:47:28;;;;;;;;;;;;;;;23.97;53.92;101149.16;5142413;27;19971;-35
2022/08/22 03:50:03;;;;;;;;;;;;;;;23.98;53.78;101145.22;5131882;27;21048;-34
2022/08/22 03:53:06;;;;;;;;;;;;;;;23.97;53.78;101141.63;5144558;27;20026;-36
2022/08/22 03:55:33;;;;;;;;;;;;;;;23.96;53.67;101145.56;5138123;27;19968;-34
2022/08/22 03:58:06;;;;;;;;;;;;;;;23.97;53.81;101149.16;5144958;27;19970;-34
2022/08/22 04:00:52;;;;;;;;;;;;;;;23.97;53.86;101141.63;5128770;27;19981;-34
2022/08/22 04:03:25;;;;;;;;;;;;;;;23.97;53.72;101140.81;5145031;27;19931;-34
2022/08/22 04:05:57;;;;;;;;;;;;;;;23.97;53.77;101147.19;5139957;27;20418;-36
2022/08/22 04:08:30;;;;;;;;;;;;;;;23.96;53.70;101140.00;5133774;28;19969;-34
2022/08/22 04:11:01;;;;;;;;;;;;;;;23.97;53.66;101141.63;5133237;28;20014;-34
2022/08/22 04:13:34;;;;;;;;;;;;;;;23.97;53.65;101144.41;5113050;28;19923;-34
2022/08/22 04:16:06;;;;;;;;;;;;;;;23.98;53.73;101142.44;5129581;28;20006;-34
2022/08/22 04:18:38;;;;;;;;;;;;;;;23.97;53.94;101151.94;5130442;28;19970;-35
2022/08/22 04:21:25;;;;;;;;;;;;;;;23.97;53.58;101154.72;5132355;28;19962;-34
2022/08/22 04:24:11;;;;;;;;;;;;;;;23.97;53.80;101152.75;5116193;28;20016;-34
2022/08/22 04:26:41;;;;;;;;;;;;;;;23.97;53.58;101149.97;5116440;28;20445;-34
2022/08/22 04:29:09;;;;;;;;;;;;;;;23.97;53.75;101151.94;5132044;28;20405;-34
2022/08/22 04:31:39;;;;;;;;;;;;;;;23.97;53.65;101146.38;5130270;28;19960;-34
2022/08/22 04:34:08;;;;;;;;;;;;;;;23.97;53.62;101146.38;5132573;28;20413;-34
2022/08/22 04:36:38;;;;;;;;;;;;;;;23.97;53.75;101154.72;5111565;28;20081;-34
2022/08/22 04:39:04;;;;;;;;;;;;;;;23.97;53.74;101144.41;5113877;28;20021;-34
2022/08/22 04:41:49;;;;;;;;;;;;;;;23.98;53.46;101148.00;5133022;28;19966;-34
2022/08/22 04:44:21;;;;;;;;;;;;;;;23.97;53.50;101146.38;5114210;28;20035;-34
2022/08/22 04:47:07;;;;;;;;;;;;;;;23.97;53.44;101147.19;5125179;28;19963;-34
2022/08/22 04:49:42;;;;;;;;;;;;;;;23.98;53.05;101148.00;5116880;28;20017;-35
2022/08/22 04:52:10;;;;;;;;;;;;;;;23.97;52.98;101154.72;5102973;28;20061;-34
2022/08/22 04:54:42;;;;;;;;;;;;;;;23.97;52.88;101147.19;5129407;28;20004;-35
2022/08/22 04:57:28;;;;;;;;;;;;;;;23.96;52.55;101153.03;5126201;28;19970;-35
2022/08/22 04:59:57;;;;;;;;;;;;;;;23.95;52.50;101157.78;5117037;28;19975;-34
2022/08/22 05:02:26;;;;;;;;;;;;;;;23.96;52.49;101164.16;5131265;28;19962;-35
2022/08/22 05:04:55;;;;;;;;;;;;;;;23.96;52.17;101158.59;5132742;28;20008;-35
2022/08/22 05:07:25;;;;;;;;;;;;;;;23.96;52.42;101167.81;5131223;28;19978;-35
2022/08/22 05:09:55;;;;;;;;;;;;;;;23.97;52.53;101171.41;5125107;28;20049;-35
2022/08/22 05:12:24;;;;;;;;;;;;;;;23.95;52.62;101168.91;5132333;28;19955;-38
2022/08/22 05:14:59;;;;;;;;;;;;;;;23.96;52.67;101165.03;5131059;28;20436;-35
2022/08/22 05:17:26;;;;;;;;;;;;;;;23.96;52.74;101165.03;5110315;28;19928;-35
2022/08/22 05:19:54;;;;;;;;;;;;;;;23.97;52.66;101163.06;5130400;28;20285;-34
2022/08/22 05:22:20;;;;;;;;;;;;;;;23.96;52.68;101165.03;5114961;28;20401;-35
2022/08/22 05:24:47;;;;;;;;;;;;;;;23.96;52.22;101167.81;5132180;28;20026;-34
2022/08/22 05:27:14;;;;;;;;;;;;;;;23.96;51.97;101170.59;5110056;28;20014;-35
2022/08/22 05:29:42;;;;;;;;;;;;;;;23.96;51.85;101173.38;5127890;28;20271;-34
2022/08/22 05:32:10;;;;;;;;;;;;;;;23.95;51.69;101170.88;5126496;28;20000;-34
2022/08/22 05:34:37;;;;;;;;;;;;;;;23.96;52.22;101169.75;5125339;28;20429;-35
2022/08/22 05:39:45;;;;;;;;;;;;;;;23.96;52.02;101178.94;5179672;27;20065;-35
2022/08/22 05:42:12;;;;;;;;;;;;;;;23.96;52.14;101173.38;5171509;27;19927;-35
2022/08/22 05:44:38;;;;;;;;;;;;;;;23.96;52.22;101176.16;5157231;27;19966;-34
2022/08/22 05:47:05;;;;;;;;;;;;;;;23.97;52.40;101174.19;5160470;27;20272;-35
2022/08/22 05:49:50;;;;;;;;;;;;;;;23.97;52.81;101180.56;5157369;27;19958;-35
2022/08/22 05:52:21;;;;;;;;;;;;;;;23.98;52.80;101182.22;5139905;27;19976;-35
2022/08/22 05:54:52;;;;;;;;;;;;;;;23.98;52.65;101184.19;5146477;27;19927;-34
2022/08/22 05:57:26;;;;;;;;;;;;;;;23.98;52.58;101178.63;5144200;27;20046;-35
2022/08/22 05:59:53;;;;;;;;;;;;;;;23.96;52.45;101176.16;5129322;27;20025;-35
2022/08/22 06:02:20;;;;;;;;;;;;;;;23.98;52.60;101170.28;5142668;27;20014;-34
2022/08/22 06:04:48;;;;;;;;;;;;;;;23.97;52.50;101183.34;5127904;27;20444;-34
2022/08/22 06:07:26;;;;;;;;;;;;;;;23.96;52.74;101181.72;5148439;27;20322;-34
2022/08/22 06:09:57;;;;;;;;;;;;;;;23.97;52.64;101177.78;5155080;27;20013;-36
2022/08/22 06:12:28;;;;;;;;;;;;;;;23.97;52.78;101190.88;5154784;27;20342;-35
2022/08/22 06:15:14;;;;;;;;;;;;;;;23.97;52.62;101193.66;5154553;27;20009;-35
2022/08/22 06:17:41;;;;;;;;;;;;;;;23.95;52.59;101205.06;5134049;27;20033;-34
2022/08/22 06:20:07;;;;;;;;;;;;;;;23.95;52.78;101205.06;5135194;27;20078;-37
2022/08/22 06:22:35;;;;;;;;;;;;;;;23.96;52.57;101209.53;5149457;27;20009;-35
2022/08/22 06:25:05;;;;;;;;;;;;;;;23.96;52.37;101203.97;5147838;27;20021;-35
2022/08/22 06:27:30;;;;;;;;;;;;;;;23.96;52.51;101203.97;5144476;27;19931;-34
2022/08/22 06:29:57;;;;;;;;;;;;;;;23.96;52.79;101200.34;5154796;27;20285;-35
2022/08/22 06:32:25;;;;;;;;;;;;;;;23.96;52.58;101195.63;5154420;27;20014;-34
2022/08/22 06:35:17;;;;;;;;;;;;;;;23.96;52.37;101203.97;5129198;27;19931;-35
2022/08/22 06:37:44;;;;;;;;;;;;;;;23.96;52.40;101195.63;5134864;27;20063;-37
2022/08/22 06:40:11;;;;;;;;;;;;;;;23.96;52.52;101197.56;5148055;27;20361;-37
2022/08/22 06:42:38;;;;;;;;;;;;;;;23.95;52.46;101207.84;5154223;27;19923;-37
2022/08/22 06:45:08;;;;;;;;;;;;;;;23.96;52.62;101200.34;5131935;27;20456;-37
2022/08/22 06:47:35;;;;;;;;;;;;;;;23.97;52.76;101210.34;5143195;27;19969;-37
2022/08/22 06:50:05;;;;;;;;;;;;;;;23.96;52.78;101209.53;5136689;27;19929;-37
2022/08/22 06:52:47;;;;;;;;;;;;;;;23.96;52.74;101206.75;5132359;27;19968;-36
2022/08/22 06:55:13;;;;;;;;;;;;;;;23.95;52.96;101202.28;5132032;27;20014;-36
2022/08/22 06:57:42;;;;;;;;;;;;;;;23.97;52.74;101193.66;5130816;27;20289;-37
2022/08/22 07:00:10;;;;;;;;;;;;;;;23.96;52.82;101203.13;5126897;27;20133;-38
2022/08/22 07:02:37;;;;;;;;;;;;;;;23.94;52.74;101200.66;5128373;27;19932;-37
2022/08/22 07:05:04;;;;;;;;;;;;;;;23.95;52.96;101196.72;5131924;27;20348;-37
2022/08/22 07:07:29;;;;;;;;;;;;;;;23.95;53.00;101202.28;5127543;27;20020;-37
2022/08/22 07:09:56;;;;;;;;;;;;;;;23.96;53.00;101198.41;5111991;27;19963;-36
2022/08/22 07:12:25;;;;;;;;;;;;;;;23.95;53.23;101202.28;5121467;27;19935;-38
2022/08/22 07:14:51;;;;;;;;;;;;;;;23.97;53.14;101193.66;5102650;27;20030;-37
2022/08/22 07:17:23;;;;;;;;;;;;;;;23.97;53.08;101199.22;5119946;27;20699;-37
2022/08/22 07:20:09;;;;;;;;;;;;;;;23.96;53.01;101192.84;5133132;27;20010;-37
2022/08/22 07:22:36;;;;;;;;;;;;;;;23.96;53.31;101203.13;5118300;27;20018;-38
2022/08/22 07:25:10;;;;;;;;;;;;;;;23.95;52.88;101190.34;5125203;27;20282;-36
2022/08/22 07:27:53;;;;;;;;;;;;;;;23.94;53.03;101189.53;5134171;27;20014;-36
2022/08/22 07:30:19;;;;;;;;;;;;;;;23.95;53.04;101196.72;5136822;27;20025;-36
2022/08/22 07:32:56;;;;;;;;;;;;;;;23.94;53.34;101189.53;5130172;27;20013;-37
2022/08/22 07:35:27;;;;;;;;;;;;;;;23.95;52.88;101191.16;5091750;27;21029;-36
2022/08/22 07:38:03;;;;;;;;;;;;;;;23.96;52.99;101206.75;5128988;27;20465;-36
2022/08/22 07:40:34;;;;;;;;;;;;;;;23.96;52.95;101205.91;5130825;27;19952;-36
2022/08/22 07:43:03;;;;;;;;;;;;;;;23.96;52.92;101209.53;5131241;27;20014;-36
2022/08/22 07:45:37;;;;;;;;;;;;;;;23.96;53.10;101205.91;5130199;27;20103;-37
2022/08/22 07:48:05;;;;;;;;;;;;;;;23.62;53.44;101211.75;5123196;27;19923;-41
2022/08/22 07:50:33;;;;;;;;;;;;;;;23.53;53.76;101209.69;5135107;27;20009;-44
2022/08/22 07:53:04;;;;;;;;;;;;;;;23.62;53.53;101208.97;5112480;27;20371;-37
2022/08/22 07:55:29;;;;;;;;;;;;;;;23.80;53.41;101210.13;5130872;27;20062;-36
2022/08/22 07:57:55;;;;;;;;;;;;;;;23.87;53.11;101214.13;5130157;27;19938;-37
2022/08/22 08:00:21;;;;;;;;;;;;;;;23.91;52.99;101211.56;5131052;27;19934;-37
2022/08/22 08:02:48;;;;;;;;;;;;;;;23.94;53.05;101213.75;5131940;27;20453;-37
2022/08/22 08:05:14;;;;;;;;;;;;;;;23.96;53.10;101205.91;5135901;27;19978;-39
2022/08/22 08:07:39;;;;;;;;;;;;;;;23.96;53.11;101200.34;5087079;27;19931;-36
2022/08/22 08:10:05;;;;;;;;;;;;;;;23.97;53.34;101194.47;5108376;27;19927;-35
2022/08/22 08:12:38;;;;;;;;;;;;;;;23.98;53.42;101189.75;5119025;27;19928;-36
2022/08/22 08:15:06;;;;;;;;;;;;;;;23.98;53.31;101190.56;5127018;27;19985;-38
2022/08/22 08:17:31;;;;;;;;;;;;;;;23.99;53.16;101185.81;5129353;27;20051;-37
2022/08/22 08:19:57;;;;;;;;;;;;;;;23.95;53.14;101188.38;5128705;27;20073;-37
2022/08/22 08:22:23;;;;;;;;;;;;;;;23.98;53.24;101182.22;5125105;27;19950;-38
2022/08/22 08:24:49;;;;;;;;;;;;;;;23.99;53.27;101175.50;5130453;27;20388;-36
2022/08/22 08:30:22;;;;;;;;;;;;;;;24.01;53.14;101173.25;5118308;27;20037;-36
2022/08/22 08:32:49;;;;;;;;;;;;;;;24.02;52.90;101168.53;5140118;27;20096;-37
2022/08/22 08:35:18;;;;;;;;;;;;;;;24.03;52.71;101171.00;5127166;27;20476;-36
2022/08/22 08:37:46;;;;;;;;;;;;;;;24.03;52.78;101168.19;5108071;27;20120;-36
2022/08/22 08:40:32;;;;;;;;;;;;;;;24.04;52.77;101163.47;5108145;27;20445;-36
2022/08/22 08:43:35;;;;;;;;;;;;;;;24.04;52.88;101174.59;5111897;27;20022;-36
2022/08/22 08:46:18;;;;;;;;;;;;;;;24.06;52.90;101160.38;5118478;27;20026;-36
2022/08/22 08:48:52;;;;;;;;;;;;;;;24.06;52.77;101164.00;5133830;27;19962;-37
2022/08/22 08:51:38;;;;;;;;;;;;;;;24.04;52.67;101155.94;5137242;27;20588;-36
2022/08/22 08:54:25;;;;;;;;;;;;;;;24.03;52.73;101157.06;5115074;27;20378;-36
2022/08/22 08:56:54;;;;;;;;;;;;;;;24.04;52.60;101142.03;5121146;27;20023;-37
2022/08/22 08:59:26;;;;;;;;;;;;;;;24.07;52.66;101150.91;5133828;27;20429;-37
2022/08/22 09:01:58;;;;;;;;;;;;;;;24.04;52.50;101147.59;5115234;27;19931;-36
2022/08/22 09:04:30;;;;;;;;;;;;;;;24.06;52.54;101144.53;5133634;27;20018;-37
2022/08/22 09:07:02;;;;;;;;;;;;;;;24.08;52.15;101135.84;5136764;27;20030;-36
2022/08/22 09:09:36;;;;;;;;;;;;;;;24.07;52.00;101139.78;5136124;27;20404;-39
2022/08/22 09:12:12;;;;;;;;;;;;;;;24.07;51.96;101137.81;5133494;27;20060;-37
2022/08/22 09:14:44;;;;;;;;;;;;;;;24.07;51.85;101140.59;5132830;27;19935;-37
2022/08/22 09:17:29;;;;;;;;;;;;;;;24.07;51.85;101137.00;5134517;27;20434;-37
2022/08/22 09:20:15;;;;;;;;;;;;;;;24.07;51.87;101123.91;5117237;27;19970;-37
2022/08/22 09:23:04;;;;;;;;;;;;;;;24.10;52.14;101131.63;5117098;27;19931;-37
2022/08/22 09:25:44;;;;;;;;;;;;;;;24.10;51.74;101130.81;5115476;27;19931;-36
2022/08/22 09:28:19;;;;;;;;;;;;;;;24.12;51.32;101128.53;5110027;27;20457;-36
2022/08/22 09:30:48;;;;;;;;;;;;;;;24.13;51.46;101122.66;5129462;27;19938;-37
2022/08/22 09:33:20;;;;;;;;;;;;;;;24.10;49.37;101120.50;5102720;27;19931;-38
2022/08/22 09:35:54;;;;;;;;;;;;;;;24.11;50.04;101121.34;5113356;27;19942;-36
2022/08/22 09:38:25;;;;;;;;;;;;;;;24.15;50.33;101122.38;5120621;27;19939;-36
2022/08/22 09:41:10;;;;;;;;;;;;;;;24.15;50.74;101117.63;5123139;27;19923;-37
2022/08/22 09:43:37;;;;;;;;;;;;;;;24.16;50.96;101119.25;5110044;27;19958;-37
2022/08/22 09:46:25;;;;;;;;;;;;;;;24.16;50.95;101112.88;5127431;27;20304;-37
2022/08/22 09:49:03;;;;;;;;;;;;;;;24.17;50.99;101108.94;5134955;27;19923;-37
2022/08/22 09:51:51;;;;;;;;;;;;;;;24.16;50.76;101113.69;5131120;27;19973;-38
2022/08/22 09:54:21;;;;;;;;;;;;;;;24.15;50.88;101108.44;5115696;27;20486;-36
2022/08/22 09:57:07;;;;;;;;;;;;;;;24.15;50.44;101114.84;5131774;27;20022;-37
2022/08/22 09:59:37;;;;;;;;;;;;;;;24.16;50.37;101121.22;5117726;27;20381;-37
2022/08/22 10:02:22;;;;;;;;;;;;;;;24.15;50.26;101122.38;5134991;27;19946;-37
2022/08/22 10:04:55;;;;;;;;;;;;;;;24.14;50.36;101117.94;5130944;27;20010;-37
2022/08/22 10:07:31;;;;;;;;;;;;;;;24.15;50.30;101116.78;5109449;27;20030;-36
2022/08/22 10:10:16;;;;;;;;;;;;;;;24.16;50.34;101110.09;5134254;27;20014;-36
2022/08/22 10:12:50;;;;;;;;;;;;;;;24.16;50.50;101112.88;5114499;27;19977;-36
2022/08/22 10:15:18;;;;;;;;;;;;;;;24.17;50.57;101114.50;5134379;27;20030;-36
2022/08/22 10:17:51;;;;;;;;;;;;;;;24.18;50.96;101118.94;5114967;27;19927;-36
2022/08/22 10:20:20;;;;;;;;;;;;;;;24.17;50.71;101111.72;5136264;27;20236;-37
2022/08/22 10:23:05;;;;;;;;;;;;;;;24.18;50.64;101114.22;5116226;27;20378;-36
2022/08/22 10:25:48;;;;;;;;;;;;;;;24.18;50.75;101110.59;5117069;27;20022;-36
2022/08/22 10:28:18;;;;;;;;;;;;;;;24.22;50.06;101108.84;5131045;27;20078;-37
2022/08/22 10:30:46;;;;;;;;;;;;;;;24.20;49.69;101106.38;5118788;27;19968;-37
2022/08/22 10:33:13;;;;;;;;;;;;;;;24.21;50.23;101102.44;5118642;27;20784;-36
2022/08/22 10:38:21;;;;;;;;;;;;;;;24.21;50.61;101099.66;5169315;27;20005;-36
2022/08/22 10:40:52;;;;;;;;;;;;;;;24.23;50.82;101105.75;5149818;27;19988;-34
2022/08/22 10:43:37;;;;;;;;;;;;;;;24.21;50.56;101102.44;5129572;27;20350;-34
2022/08/22 10:46:08;;;;;;;;;;;;;;;24.23;50.84;101097.41;5148916;27;19931;-34
2022/08/22 10:48:42;;;;;;;;;;;;;;;24.23;50.79;101097.41;5130524;27;20256;-35
2022/08/22 10:51:12;;;;;;;;;;;;;;;24.25;51.06;101097.91;5152638;27;19966;-34
2022/08/22 10:53:57;;;;;;;;;;;;;;;24.25;51.04;101094.31;5149660;27;19962;-35
2022/08/22 10:56:25;;;;;;;;;;;;;;;24.25;50.91;101097.09;5136526;27;19927;-35
2022/08/22 10:58:54;;;;;;;;;;;;;;;24.25;50.94;101091.53;5155175;27;20000;-37
2022/08/22 11:01:21;;;;;;;;;;;;;;;24.25;50.77;101085.97;5132756;27;20034;-38
2022/08/22 11:04:25;;;;;;;;;;;;;;;24.25;50.44;101085.97;5152062;27;19934;-37
2022/08/22 11:06:57;;;;;;;;;;;;;;;24.24;50.38;101081.53;5138496;27;19976;-37
2022/08/22 11:09:25;;;;;;;;;;;;;;;24.26;50.32;101076.47;5151639;27;20037;-37
2022/08/22 11:12:02;;;;;;;;;;;;;;;24.26;50.22;101079.25;5149429;27;20000;-37
2022/08/22 11:14:42;;;;;;;;;;;;;;;24.26;50.48;101071.72;5150507;27;19935;-36
2022/08/22 11:17:15;;;;;;;;;;;;;;;24.27;50.52;101081.75;5152981;27;19930;-37
2022/08/22 11:20:09;;;;;;;;;;;;;;;24.28;50.59;101068.66;5147547;27;20422;-36
2022/08/22 11:22:54;;;;;;;;;;;;;;;24.27;50.43;101070.59;5150250;27;19930;-36
2022/08/22 11:25:40;;;;;;;;;;;;;;;24.28;50.58;101065.84;5137304;27;19923;-37
2022/08/22 11:28:26;;;;;;;;;;;;;;;24.29;50.45;101067.50;5134239;27;19941;-36
2022/08/22 11:31:15;;;;;;;;;;;;;;;24.29;50.24;101064.72;5129152;27;20025;-37
2022/08/22 11:33:47;;;;;;;;;;;;;;;24.29;50.54;101062.75;5130270;27;19942;-37
2022/08/22 11:38:58;;;;;;;;;;;;;;;24.32;50.86;101057.72;5157971;27;20010;-35
2022/08/22 11:41:30;;;;;;;;;;;;;;;24.29;50.73;101054.41;5139053;27;19975;-35
2022/08/22 11:44:01;;;;;;;;;;;;;;;24.30;51.20;101058.00;5140474;27;20250;-35
2022/08/22 11:46:29;;;;;;;;;;;;;;;24.31;51.30;101064.41;5118121;27;19923;-35
2022/08/22 11:49:14;;;;;;;;;;;;;;;24.30;51.30;101058.00;5133954;27;19989;-35
2022/08/22 11:51:48;;;;;;;;;;;;;;;24.31;51.56;101056.03;5131289;27;20350;-36
2022/08/22 11:54:18;;;;;;;;;;;;;;;24.29;51.66;101053.59;5137642;27;19930;-34
2022/08/22 11:56:47;;;;;;;;;;;;;;;24.31;51.60;101064.41;5135591;27;19966;-35
2022/08/22 11:59:39;;;;;;;;;;;;;;;24.29;51.65;101062.75;5135933;27;20158;-35
2022/08/22 12:02:25;;;;;;;;;;;;;;;24.29;51.06;101056.38;5124428;27;19924;-34
2022/08/22 12:04:52;;;;;;;;;;;;;;;24.29;51.45;101050.81;5139925;27;19966;-34
2022/08/22 12:07:19;;;;;;;;;;;;;;;24.29;51.25;101054.41;5132706;27;20015;-34
2022/08/22 12:09:57;;;;;;;;;;;;;;;24.29;51.25;101048.84;5136068;27;19932;-35
2022/08/22 12:12:42;;;;;;;;;;;;;;;24.28;50.55;101047.19;5113467;27;20018;-34
2022/08/22 12:20:40;;;;;;;;;;;;;;;24.27;49.37;101036.38;5171432;27;20013;-34
2022/08/22 12:23:18;;;;;;;;;;;;;;;24.29;49.29;101034.09;5156214;27;19931;-35
2022/08/22 12:25:54;;;;;;;;;;;;;;;24.29;50.08;101036.88;5151980;27;20014;-35
2022/08/22 12:28:27;;;;;;;;;;;;;;;24.29;49.55;101036.88;5150769;27;19930;-35
2022/08/22 12:30:58;;;;;;;;;;;;;;;24.31;49.38;101039.34;5151611;27;19978;-35
2022/08/22 12:36:20;;;;;;;;;;;;;;;24.29;50.17;101031.31;5103703;27;20011;-34
2022/08/22 12:39:05;;;;;;;;;;;;;;;24.30;49.85;101032.97;5105181;28;20397;-35
2022/08/22 12:41:44;;;;;;;;;;;;;;;24.36;48.35;101025.34;5092781;28;20014;-55
2022/08/22 12:44:32;;;;;;;;;;;;;;;24.26;47.81;101024.41;5110146;27;19963;-41
2022/08/22 12:47:02;;;;;;;;;;;;;;;24.30;49.19;101021.81;5106458;28;20015;-39
2022/08/22 12:49:35;;;;;;;;;;;;;;;24.32;48.68;101033.50;5111511;28;19924;-40
2022/08/22 12:52:21;;;;;;;;;;;;;;;24.32;48.68;101019.56;5111903;28;20554;-42
2022/08/22 12:54:51;;;;;;;;;;;;;;;24.32;48.96;101015.97;5093730;28;19927;-40
2022/08/22 12:57:23;;;;;;;;;;;;;;;24.32;48.92;101019.56;5107115;28;20023;-40
2022/08/22 12:59:53;;;;;;;;;;;;;;;24.31;48.93;101019.88;5110047;28;20013;-40
2022/08/22 13:02:27;;;;;;;;;;;;;;;24.30;49.24;101010.69;5107256;28;20568;-41
2022/08/22 13:04:54;;;;;;;;;;;;;;;24.29;48.72;101007.09;5097253;28;20070;-39
2022/08/22 13:07:22;;;;;;;;;;;;;;;24.30;48.79;101002.34;5093068;28;20092;-39
2022/08/22 13:09:49;;;;;;;;;;;;;;;24.31;49.52;101001.22;5108916;28;19935;-40
2022/08/22 13:12:20;;;;;;;;;;;;;;;24.32;51.02;101002.88;5113237;27;19930;-40
2022/08/22 13:14:46;;;;;;;;;;;;;;;24.32;49.73;100999.28;5111717;27;20373;-40
2022/08/22 13:17:13;;;;;;;;;;;;;;;24.33;49.52;100998.94;5088373;28;20014;-40
2022/08/22 13:19:53;;;;;;;;;;;;;;;24.32;49.47;101004.84;5111106;28;19962;-42
2022/08/22 13:22:19;;;;;;;;;;;;;;;24.33;50.15;101007.28;5107324;28;19978;-41
2022/08/22 13:24:46;;;;;;;;;;;;;;;24.33;51.23;100998.94;5114465;27;19967;-40
2022/08/22 13:27:26;;;;;;;;;;;;;;;24.32;49.03;100997.31;5105624;28;19982;-39
2022/08/22 13:29:57;;;;;;;;;;;;;;;24.34;49.13;100999.75;5092029;28;19931;-39
2022/08/22 13:32:27;;;;;;;;;;;;;;;24.34;49.54;101000.59;5091193;28;19951;-43